createdAt,value
2023-03-01T00:00:02.432Z,2.20
2023-03-01T00:04:14.795Z,1.90
2023-03-01T00:08:18.221Z,2.28
2023-03-01T00:12:23.476Z,2.72
2023-03-01T00:16:40.080Z,3.15
2023-03-01T00:20:54.534Z,1.95
2023-03-01T00:24:57.901Z,2.17
2023-03-01T00:29:02.161Z,2.22
2023-03-01T00:33:06.111Z,2.22
2023-03-01T00:37:09.614Z,2.25
2023-03-01T00:41:18.191Z,2.22
2023-03-01T00:45:23.580Z,2.25
2023-03-01T00:49:28.902Z,1.67
2023-03-01T00:53:33.778Z,2.33
2023-03-01T00:57:37.198Z,2.03
2023-03-01T01:01:40.917Z,1.95
2023-03-01T01:05:44.316Z,1.73
2023-03-01T01:09:48.598Z,1.75
2023-03-01T01:13:52.724Z,1.30
2023-03-01T01:17:56.242Z,1.45
2023-03-01T01:21:59.916Z,1.42
2023-03-01T01:26:18.072Z,1.33
2023-03-01T01:30:21.522Z,0.90
2023-03-01T01:34:26.354Z,1.10
2023-03-01T01:38:30.119Z,1.15
2023-03-01T01:42:35.615Z,1.55
2023-03-01T01:46:45.727Z,1.30
2023-03-01T01:50:59.557Z,1.33
2023-03-01T01:55:14.672Z,1.10
2023-03-01T01:59:18.286Z,0.90
2023-03-01T02:03:30.230Z,0.80
2023-03-01T02:07:34.252Z,0.70
2023-03-01T02:11:38.898Z,0.80
2023-03-01T02:15:45.241Z,0.82
2023-03-01T02:20:00.695Z,1.00
2023-03-01T02:24:42.334Z,0.50
2023-03-01T02:28:46.560Z,0.90
2023-03-01T02:32:51.171Z,0.60
2023-03-01T02:37:08.009Z,0.95
2023-03-01T02:41:16.774Z,1.02
2023-03-01T02:45:20.564Z,1.17
2023-03-01T02:49:33.117Z,0.93
2023-03-01T02:53:59.849Z,0.80
2023-03-01T02:58:04.869Z,1.10
2023-03-01T03:02:37.370Z,1.10
2023-03-01T03:06:54.670Z,1.00
2023-03-01T03:10:58.152Z,1.00
2023-03-01T03:15:01.830Z,0.93
2023-03-01T03:19:06.298Z,1.35
2023-03-01T03:23:10.145Z,1.10
2023-03-01T03:27:13.800Z,0.82
2023-03-01T03:31:17.795Z,0.80
2023-03-01T03:35:26.556Z,0.80
2023-03-01T03:39:35.998Z,0.88
2023-03-01T03:43:41.611Z,0.65
2023-03-01T03:47:45.451Z,1.02
2023-03-01T03:51:48.827Z,0.82
2023-03-01T03:55:52.896Z,1.17
2023-03-01T03:59:56.402Z,0.77
2023-03-01T04:04:05.416Z,1.20
2023-03-01T04:08:09.677Z,1.30
2023-03-01T04:12:13.164Z,1.63
2023-03-01T04:16:16.717Z,1.35
2023-03-01T04:20:26.289Z,1.27
2023-03-01T04:24:30.823Z,1.02
2023-03-01T04:28:38.845Z,1.52
2023-03-01T04:32:42.820Z,1.10
2023-03-01T04:36:46.541Z,1.30
2023-03-01T04:40:50.226Z,0.90
2023-03-01T04:44:54.644Z,1.10
2023-03-01T04:48:58.094Z,1.80
2023-03-01T04:53:02.686Z,1.42
2023-03-01T04:57:06.071Z,1.33
2023-03-01T05:01:17.521Z,1.52
2023-03-01T05:05:37.378Z,1.40
2023-03-01T05:09:41.001Z,1.55
2023-03-01T05:13:44.598Z,1.90
2023-03-01T05:17:48.050Z,1.00
2023-03-01T05:22:03.195Z,1.83
2023-03-01T05:26:16.071Z,1.38
2023-03-01T05:30:25.964Z,1.75
2023-03-01T05:34:35.241Z,1.90
2023-03-01T05:38:39.777Z,1.90
2023-03-01T05:42:53.754Z,1.77
2023-03-01T05:46:58.665Z,1.13
2023-03-01T05:51:02.046Z,1.60
2023-03-01T05:55:07.088Z,1.35
2023-03-01T05:59:10.506Z,1.63
2023-03-01T06:03:16.526Z,1.90
2023-03-01T06:07:19.898Z,2.28
2023-03-01T06:11:23.958Z,1.83
2023-03-01T06:15:27.625Z,1.83
2023-03-01T06:19:31.163Z,2.65
2023-03-01T06:23:35.700Z,2.45
2023-03-01T06:27:39.606Z,2.33
2023-03-01T06:31:43.163Z,2.40
2023-03-01T06:35:46.892Z,3.15
2023-03-01T06:39:50.591Z,2.00
2023-03-01T06:43:57.687Z,2.10
2023-03-01T06:48:06.273Z,2.50
2023-03-01T06:52:09.734Z,2.22
2023-03-01T06:56:13.219Z,2.15
2023-03-01T07:00:17.996Z,3.63
2023-03-01T07:04:21.729Z,4.40
2023-03-01T07:08:25.181Z,3.60
2023-03-01T07:12:28.597Z,2.65
2023-03-01T07:16:32.366Z,5.10
2023-03-01T07:20:36.526Z,2.40
2023-03-01T07:24:40.483Z,2.83
2023-03-01T07:28:43.860Z,2.33
2023-03-01T07:32:47.868Z,2.30
2023-03-01T07:36:51.430Z,1.60
2023-03-01T07:40:55.389Z,1.85
2023-03-01T07:44:58.769Z,1.73
2023-03-01T07:49:02.600Z,1.70
2023-03-01T07:53:06.104Z,1.30
2023-03-01T07:57:09.516Z,1.30
2023-03-01T08:01:15.605Z,1.33
2023-03-01T08:05:20.151Z,1.20
2023-03-01T08:09:23.713Z,1.52
2023-03-01T08:13:27.733Z,1.10
2023-03-01T08:17:31.952Z,2.03
2023-03-01T08:21:36.058Z,2.08
2023-03-01T08:25:40.077Z,1.60
2023-03-01T08:29:43.626Z,1.10
2023-03-01T08:33:51.857Z,1.30
2023-03-01T08:37:55.294Z,1.33
2023-03-01T08:41:59.357Z,6.13
2023-03-01T08:46:02.829Z,5.45
2023-03-01T08:50:07.449Z,1.90
2023-03-01T08:54:14.587Z,1.25
2023-03-01T08:58:18.112Z,2.03
2023-03-01T09:02:21.843Z,1.58
2023-03-01T09:06:25.556Z,1.38
2023-03-01T09:10:29.034Z,1.90
2023-03-01T09:14:32.506Z,2.20
2023-03-01T09:18:37.224Z,2.67
2023-03-01T09:22:41.512Z,2.00
2023-03-01T09:26:48.890Z,1.30
2023-03-01T09:30:53.403Z,1.65
2023-03-01T09:35:05.867Z,1.88
2023-03-01T09:39:09.326Z,1.33
2023-03-01T09:43:25.184Z,1.27
2023-03-01T09:47:34.832Z,1.27
2023-03-01T09:51:41.134Z,2.00
2023-03-01T09:56:04.649Z,1.83
2023-03-01T10:00:21.930Z,1.67
2023-03-01T10:08:55.044Z,3.25
2023-03-01T10:13:01.013Z,1.13
2023-03-01T10:17:32.807Z,1.42
2023-03-01T10:21:44.579Z,0.80
2023-03-01T10:26:38.721Z,1.00
2023-03-01T10:30:45.308Z,1.58
2023-03-01T10:34:49.797Z,1.42
2023-03-01T10:38:58.076Z,1.38
2023-03-01T10:43:05.102Z,1.10
2023-03-01T10:47:24.586Z,1.30
2023-03-01T10:51:28.552Z,0.90
2023-03-01T10:55:41.683Z,1.13
2023-03-01T10:59:45.355Z,1.50
2023-03-01T11:04:07.295Z,2.08
2023-03-01T11:08:13.213Z,1.30
2023-03-01T11:12:18.324Z,1.30
2023-03-01T11:16:29.809Z,1.00
2023-03-01T11:20:37.755Z,1.00
2023-03-01T11:24:46.311Z,0.95
2023-03-01T11:28:55.335Z,0.73
2023-03-01T11:33:49.028Z,0.45
2023-03-01T11:38:01.163Z,0.82
2023-03-01T11:42:19.660Z,1.30
2023-03-01T11:46:42.029Z,1.40
2023-03-01T11:50:50.831Z,1.15
2023-03-01T11:55:00.149Z,1.35
2023-03-01T11:59:31.603Z,2.17
2023-03-01T12:03:53.871Z,1.30
2023-03-01T12:08:00.297Z,3.08
2023-03-01T12:12:11.121Z,1.00
2023-03-01T12:16:40.300Z,1.50
2023-03-01T12:21:06.139Z,1.52
2023-03-01T12:25:56.889Z,1.73
2023-03-01T12:30:22.029Z,3.85
2023-03-01T12:35:01.276Z,2.38
2023-03-01T12:39:18.044Z,2.67
2023-03-01T12:43:37.611Z,1.67
2023-03-01T12:47:58.863Z,1.40
2023-03-01T12:52:21.637Z,1.30
2023-03-01T12:56:30.371Z,1.10
2023-03-01T13:00:37.035Z,2.50
2023-03-01T13:04:49.567Z,1.42
2023-03-01T13:09:07.919Z,1.70
2023-03-01T13:13:23.892Z,2.50
2023-03-01T13:17:33.793Z,1.38
2023-03-01T13:21:37.856Z,1.60
2023-03-01T13:25:59.921Z,1.00
2023-03-01T13:30:07.003Z,1.30
2023-03-01T13:34:46.897Z,1.15
2023-03-01T13:39:16.797Z,1.20
2023-03-01T13:43:33.161Z,0.98
2023-03-01T13:47:37.949Z,0.60
2023-03-01T13:51:41.562Z,0.88
2023-03-01T13:55:58.107Z,0.70
2023-03-01T14:00:04.019Z,0.70
2023-03-01T14:04:32.780Z,0.90
2023-03-01T14:08:44.216Z,0.55
2023-03-01T14:13:15.844Z,0.52
2023-03-01T14:17:19.804Z,0.57
2023-03-01T14:21:24.195Z,0.70
2023-03-01T14:25:36.933Z,0.65
2023-03-01T14:29:41.915Z,0.70
2023-03-01T14:33:56.813Z,0.60
2023-03-01T14:38:00.712Z,0.80
2023-03-01T14:42:15.338Z,0.80
2023-03-01T14:46:32.300Z,0.60
2023-03-01T14:50:42.683Z,0.70
2023-03-01T14:54:49.927Z,0.82
2023-03-01T14:58:59.076Z,0.70
2023-03-01T15:03:16.039Z,0.73
2023-03-01T15:07:21.207Z,0.80
2023-03-01T15:11:32.442Z,0.63
2023-03-01T15:15:40.554Z,0.60
2023-03-01T15:19:47.115Z,0.60
2023-03-01T15:24:23.025Z,0.60
2023-03-01T15:28:32.193Z,1.05
2023-03-01T15:32:43.890Z,0.50
2023-03-01T15:36:51.491Z,0.55
2023-03-01T15:40:56.315Z,0.50
2023-03-01T15:45:12.906Z,0.80
2023-03-01T15:49:54.022Z,0.57
2023-03-01T15:54:02.666Z,0.45
2023-03-01T15:58:14.139Z,0.40
2023-03-01T16:02:18.006Z,0.70
2023-03-01T16:06:24.586Z,0.40
2023-03-01T16:10:29.152Z,0.50
2023-03-01T16:14:32.775Z,0.50
2023-03-01T16:18:36.425Z,0.82
2023-03-01T16:22:40.461Z,0.60
2023-03-01T16:26:44.999Z,0.50
2023-03-01T16:30:50.290Z,0.60
2023-03-01T16:34:54.097Z,1.20
2023-03-01T16:39:00.434Z,0.90
2023-03-01T16:43:04.025Z,0.88
2023-03-01T16:47:07.622Z,0.50
2023-03-01T16:51:11.690Z,0.93
2023-03-01T16:55:16.281Z,0.82
2023-03-01T16:59:20.733Z,0.73
2023-03-01T17:03:27.523Z,0.85
2023-03-01T17:07:35.637Z,1.23
2023-03-01T17:11:39.380Z,0.80
2023-03-01T17:15:43.085Z,0.95
2023-03-01T17:19:46.690Z,1.00
2023-03-01T17:23:50.745Z,0.60
2023-03-01T17:27:54.413Z,0.93
2023-03-01T17:31:58.549Z,1.20
2023-03-01T17:36:02.299Z,4.47
2023-03-01T17:40:07.048Z,17.00
2023-03-01T17:44:10.675Z,2.70
2023-03-01T17:48:15.080Z,1.85
2023-03-01T17:52:18.562Z,1.55
2023-03-01T17:56:22.159Z,1.60
2023-03-01T18:00:27.268Z,2.47
2023-03-01T18:04:33.358Z,3.30
2023-03-01T18:08:38.624Z,3.67
2023-03-01T18:12:43.139Z,2.60
2023-03-01T18:16:48.613Z,3.50
2023-03-01T18:21:04.020Z,2.58
2023-03-01T18:25:09.499Z,3.95
2023-03-01T18:29:14.870Z,4.05
2023-03-01T18:33:23.246Z,3.20
2023-03-01T18:37:29.112Z,3.30
2023-03-01T18:41:34.419Z,4.10
2023-03-01T18:45:40.066Z,3.55
2023-03-01T18:49:45.201Z,2.65
2023-03-01T18:53:51.485Z,3.30
2023-03-01T18:57:56.033Z,3.88
2023-03-01T19:01:59.674Z,4.35
2023-03-01T19:06:05.686Z,3.30
2023-03-01T19:10:11.007Z,3.77
2023-03-01T19:14:15.002Z,3.20
2023-03-01T19:18:19.109Z,4.20
2023-03-01T19:22:23.650Z,4.20
2023-03-01T19:26:33.457Z,5.15
2023-03-01T19:30:39.397Z,4.05
2023-03-01T19:34:43.622Z,3.63
2023-03-01T19:38:50.068Z,5.20
2023-03-01T19:42:55.120Z,4.97
2023-03-01T19:46:59.427Z,4.18
2023-03-01T19:51:03.501Z,3.33
2023-03-01T19:55:09.922Z,3.55
2023-03-01T19:59:13.998Z,4.43
2023-03-01T20:03:17.517Z,4.25
2023-03-01T20:07:21.951Z,2.80
2023-03-01T20:11:25.641Z,3.92
2023-03-01T20:15:31.616Z,2.70
2023-03-01T20:19:35.537Z,3.85
2023-03-01T20:23:39.786Z,6.30
2023-03-01T20:27:47.884Z,4.53
2023-03-01T20:31:52.241Z,4.90
2023-03-01T20:35:57.387Z,4.88
2023-03-01T20:40:00.986Z,6.47
2023-03-01T20:44:07.149Z,5.35
2023-03-01T20:48:11.263Z,3.10
2023-03-01T20:52:15.387Z,3.30
2023-03-01T20:56:20.543Z,2.35
2023-03-01T21:00:39.148Z,5.63
2023-03-01T21:04:44.795Z,5.57
2023-03-01T21:08:48.506Z,4.43
2023-03-01T21:12:51.970Z,4.05
2023-03-01T21:16:55.889Z,4.25
2023-03-01T21:21:09.844Z,5.95
2023-03-01T21:25:15.088Z,4.47
2023-03-01T21:33:26.232Z,1.88
2023-03-01T21:37:31.258Z,4.88
2023-03-01T21:41:38.691Z,3.95
2023-03-01T21:45:45.111Z,3.50
2023-03-01T21:49:50.438Z,3.45
2023-03-01T21:53:59.194Z,3.88
2023-03-01T21:58:03.790Z,4.32
2023-03-01T22:02:08.976Z,2.20
2023-03-01T22:06:19.557Z,1.73
2023-03-01T22:10:27.548Z,3.25
2023-03-01T22:14:32.700Z,5.03
2023-03-01T22:18:36.261Z,3.05
2023-03-01T22:22:39.717Z,1.75
2023-03-01T22:26:45.152Z,1.48
2023-03-01T22:30:49.404Z,1.13
2023-03-01T22:34:52.917Z,4.50
2023-03-01T22:39:00.527Z,2.00
2023-03-01T22:43:04.586Z,3.25
2023-03-01T22:47:08.190Z,4.40
2023-03-01T22:51:24.379Z,4.45
2023-03-01T22:55:29.603Z,5.68
2023-03-01T22:59:33.202Z,5.05
2023-03-01T23:03:37.690Z,4.18
2023-03-01T23:07:41.167Z,4.30
2023-03-01T23:11:44.986Z,5.25
2023-03-01T23:15:54.427Z,5.00
2023-03-01T23:19:58.022Z,3.75
2023-03-01T23:24:02.665Z,3.60
2023-03-01T23:28:06.897Z,4.32
2023-03-01T23:32:11.517Z,2.38
2023-03-01T23:36:21.316Z,3.13
2023-03-01T23:40:24.867Z,3.75
2023-03-01T23:44:28.446Z,3.88
2023-03-01T23:48:31.826Z,3.80
2023-03-01T23:52:40.279Z,4.00
2023-03-01T23:56:45.790Z,4.47
